createdAt,value
2017-10-17T00:00:38.180Z,26.50
2017-10-17T00:03:06.631Z,28.70
2017-10-17T00:05:35.235Z,25.57
2017-10-17T00:08:04.470Z,25.93
2017-10-17T00:10:32.909Z,26.20
2017-10-17T00:13:02.254Z,27.10
2017-10-17T00:15:30.692Z,24.40
2017-10-17T00:17:59.928Z,22.03
2017-10-17T00:20:28.414Z,23.50
2017-10-17T00:22:56.898Z,26.17
2017-10-17T00:25:25.342Z,26.57
2017-10-17T00:27:54.685Z,25.40
2017-10-17T00:30:29.121Z,24.00
2017-10-17T00:33:03.110Z,24.60
2017-10-17T00:38:29.364Z,26.07
2017-10-17T00:40:57.810Z,26.10
2017-10-17T00:43:30.485Z,22.93
2017-10-17T00:46:01.263Z,23.00
2017-10-17T00:48:29.730Z,24.83
2017-10-17T00:53:55.792Z,23.57
2017-10-17T00:56:24.228Z,24.50
2017-10-17T00:58:53.453Z,24.97
2017-10-17T01:01:21.959Z,24.80
2017-10-17T01:03:50.427Z,25.80
2017-10-17T01:06:18.870Z,20.17
2017-10-17T01:08:48.105Z,25.70
2017-10-17T01:11:16.552Z,24.63
2017-10-17T01:13:45.767Z,25.10
2017-10-17T01:16:14.225Z,23.50
2017-10-17T01:18:42.678Z,22.47
2017-10-17T01:21:15.718Z,26.00
2017-10-17T01:26:51.821Z,26.80
2017-10-17T01:29:29.526Z,27.37
2017-10-17T01:31:58.112Z,28.53
2017-10-17T01:34:41.079Z,27.97
2017-10-17T01:37:09.608Z,29.60
2017-10-17T01:39:48.805Z,26.83
2017-10-17T01:42:19.895Z,22.40
2017-10-17T01:44:49.201Z,22.90
2017-10-17T01:47:18.394Z,27.90
2017-10-17T01:49:48.211Z,23.40
2017-10-17T01:52:16.683Z,22.60
2017-10-17T01:55:06.674Z,25.60
2017-10-17T01:57:47.374Z,27.17
2017-10-17T02:00:16.417Z,25.97
2017-10-17T02:02:44.926Z,24.47
2017-10-17T02:05:13.382Z,30.10
2017-10-17T02:07:53.529Z,28.77
2017-10-17T02:10:22.745Z,29.03
2017-10-17T02:12:51.209Z,26.57
2017-10-17T02:15:20.423Z,31.10
2017-10-17T02:18:27.316Z,31.27
2017-10-17T02:21:07.475Z,32.40
2017-10-17T02:23:35.954Z,27.33
2017-10-17T02:26:23.793Z,26.20
2017-10-17T02:29:03.533Z,28.07
2017-10-17T02:31:32.781Z,28.27
2017-10-17T02:34:23.757Z,30.40
2017-10-17T02:36:52.213Z,32.93
2017-10-17T02:39:20.677Z,27.80
2017-10-17T02:41:49.885Z,30.63
2017-10-17T02:44:18.344Z,27.57
2017-10-17T02:46:49.182Z,25.93
2017-10-17T02:49:19.344Z,27.57
2017-10-17T02:51:47.835Z,27.03
2017-10-17T02:54:16.302Z,27.27
2017-10-17T02:56:44.742Z,27.60
2017-10-17T02:59:14.922Z,24.87
2017-10-17T03:01:55.021Z,29.23
2017-10-17T03:04:26.769Z,25.17
2017-10-17T03:06:55.210Z,24.80
2017-10-17T03:09:23.678Z,26.90
2017-10-17T03:11:52.122Z,26.30
2017-10-17T03:14:35.806Z,27.57
2017-10-17T03:17:04.255Z,26.27
2017-10-17T03:19:33.481Z,28.50
2017-10-17T03:22:04.309Z,26.50
2017-10-17T03:24:48.011Z,26.00
2017-10-17T03:27:16.554Z,24.87
2017-10-17T03:29:45.033Z,26.23
2017-10-17T03:32:13.503Z,24.43
2017-10-17T03:34:52.826Z,26.13
2017-10-17T03:37:35.693Z,25.57
2017-10-17T03:40:26.653Z,24.90
2017-10-17T03:43:01.335Z,24.17
2017-10-17T03:45:29.898Z,24.57
2017-10-17T03:48:01.343Z,24.27
2017-10-17T03:50:44.783Z,23.67
2017-10-17T03:56:24.884Z,24.90
2017-10-17T03:58:55.589Z,23.43
2017-10-17T04:01:33.973Z,23.80
2017-10-17T04:07:26.674Z,24.57
2017-10-17T04:13:15.351Z,24.07
2017-10-17T04:15:43.793Z,24.17
2017-10-17T04:18:26.546Z,21.47
2017-10-17T04:20:58.421Z,23.53
2017-10-17T04:23:31.291Z,22.53
2017-10-17T04:26:19.233Z,22.27
2017-10-17T04:28:48.470Z,20.70
2017-10-17T04:31:28.486Z,20.87
2017-10-17T04:37:19.205Z,19.70
2017-10-17T04:39:47.684Z,20.97
2017-10-17T04:45:47.337Z,21.43
2017-10-17T04:52:10.098Z,20.50
2017-10-17T04:54:55.133Z,20.17
2017-10-17T04:57:26.827Z,21.40
2017-10-17T05:00:12.613Z,21.77
2017-10-17T05:06:09.013Z,19.93
2017-10-17T05:09:02.993Z,21.00
2017-10-17T05:11:32.148Z,20.73
2017-10-17T05:17:16.940Z,19.60
2017-10-17T05:19:50.674Z,19.70
2017-10-17T05:22:23.557Z,19.77
2017-10-17T05:24:52.631Z,18.37
2017-10-17T05:27:32.879Z,20.77
2017-10-17T05:30:04.843Z,22.20
2017-10-17T05:32:33.331Z,21.27
2017-10-17T05:35:01.915Z,21.03
2017-10-17T05:37:30.363Z,19.20
2017-10-17T05:40:01.007Z,21.00
2017-10-17T05:42:29.505Z,20.40
2017-10-17T05:44:57.995Z,21.43
2017-10-17T05:50:56.885Z,19.57
2017-10-17T05:53:25.333Z,21.40
2017-10-17T05:55:53.814Z,20.10
2017-10-17T05:58:22.257Z,18.30
2017-10-17T06:00:50.730Z,19.87
2017-10-17T06:03:19.177Z,21.50
2017-10-17T06:05:48.407Z,20.30
2017-10-17T06:08:16.867Z,19.37
2017-10-17T06:10:46.097Z,21.20
2017-10-17T06:13:14.560Z,19.93
2017-10-17T06:15:43.062Z,20.93
2017-10-17T06:18:11.529Z,19.83
2017-10-17T06:20:39.993Z,20.10
2017-10-17T06:23:09.321Z,22.57
2017-10-17T06:25:37.760Z,21.37
2017-10-17T06:28:06.999Z,20.47
2017-10-17T06:30:35.489Z,21.70
2017-10-17T06:33:04.074Z,21.30
2017-10-17T06:35:32.551Z,20.03
2017-10-17T06:38:01.021Z,18.87
2017-10-17T06:40:29.529Z,19.83
2017-10-17T06:42:57.993Z,20.23
2017-10-17T06:45:26.441Z,19.90
2017-10-17T06:47:55.698Z,20.80
2017-10-17T06:50:24.171Z,19.03
2017-10-17T06:52:52.609Z,18.37
2017-10-17T06:55:21.943Z,19.20
2017-10-17T06:57:50.383Z,19.87
2017-10-17T07:00:19.615Z,21.10
2017-10-17T07:02:48.060Z,21.23
2017-10-17T07:05:17.293Z,17.50
2017-10-17T07:07:46.035Z,19.37
2017-10-17T07:10:14.507Z,20.30
2017-10-17T07:12:42.955Z,20.20
2017-10-17T07:15:11.422Z,20.73
2017-10-17T07:17:39.865Z,18.73
2017-10-17T07:20:08.346Z,20.97
2017-10-17T07:22:36.884Z,19.03
2017-10-17T07:25:05.352Z,20.47
2017-10-17T07:27:33.855Z,18.37
2017-10-17T07:30:02.321Z,18.40
2017-10-17T07:32:30.785Z,18.63
2017-10-17T07:34:59.993Z,20.47
2017-10-17T07:37:28.498Z,18.53
2017-10-17T07:39:56.950Z,18.37
2017-10-17T07:42:25.465Z,20.33
2017-10-17T07:44:53.911Z,20.57
2017-10-17T07:47:23.149Z,17.77
2017-10-17T07:49:51.627Z,19.80
2017-10-17T07:52:20.093Z,18.53
2017-10-17T07:54:48.538Z,18.33
2017-10-17T07:57:17.779Z,18.33
2017-10-17T07:59:46.221Z,19.00
2017-10-17T08:02:15.450Z,18.47
2017-10-17T08:04:43.889Z,17.17
2017-10-17T08:07:12.357Z,18.50
2017-10-17T08:09:40.798Z,18.00
2017-10-17T08:12:09.269Z,16.90
2017-10-17T08:14:37.705Z,18.03
2017-10-17T08:17:06.254Z,17.07
2017-10-17T08:19:34.725Z,19.53
2017-10-17T08:22:03.222Z,17.60
2017-10-17T08:24:31.691Z,17.53
2017-10-17T08:27:00.134Z,17.17
2017-10-17T08:29:29.373Z,17.57
2017-10-17T08:31:57.871Z,17.10
2017-10-17T08:34:26.445Z,17.63
2017-10-17T08:36:54.920Z,17.70
2017-10-17T08:39:23.416Z,18.70
2017-10-17T08:41:51.857Z,15.60
2017-10-17T08:44:21.193Z,17.70
2017-10-17T08:46:49.682Z,17.50
2017-10-17T08:49:18.978Z,16.40
2017-10-17T08:51:47.426Z,17.63
2017-10-17T08:54:16.658Z,18.27
2017-10-17T08:56:45.106Z,18.60
2017-10-17T08:59:14.314Z,20.10
2017-10-17T09:01:42.793Z,20.30
2017-10-17T09:04:11.244Z,18.87
2017-10-17T09:06:39.709Z,18.00
2017-10-17T09:09:08.149Z,19.00
2017-10-17T09:11:36.618Z,19.77
2017-10-17T09:14:05.830Z,19.43
2017-10-17T09:16:34.302Z,17.90
2017-10-17T09:19:02.748Z,18.60
2017-10-17T09:21:31.222Z,19.77
2017-10-17T09:23:59.676Z,19.10
2017-10-17T09:26:28.136Z,19.47
2017-10-17T09:28:56.640Z,19.47
2017-10-17T09:31:25.224Z,19.47
2017-10-17T09:33:53.670Z,20.97
2017-10-17T09:36:22.874Z,19.80
2017-10-17T09:38:52.205Z,21.30
2017-10-17T09:41:20.645Z,23.07
2017-10-17T09:43:49.873Z,22.00
2017-10-17T09:46:18.316Z,20.57
2017-10-17T09:48:47.550Z,21.20
2017-10-17T09:51:15.994Z,20.27
2017-10-17T09:53:44.457Z,21.27
2017-10-17T09:56:12.898Z,19.60
2017-10-17T09:58:41.361Z,19.60
2017-10-17T10:01:10.572Z,20.10
2017-10-17T10:03:39.037Z,20.07
2017-10-17T10:06:08.248Z,18.60
2017-10-17T10:08:36.750Z,20.10
2017-10-17T10:11:05.189Z,20.70
2017-10-17T10:13:34.405Z,19.30
2017-10-17T10:16:03.638Z,19.47
2017-10-17T10:18:32.078Z,19.00
2017-10-17T10:21:01.315Z,18.47
2017-10-17T10:23:29.761Z,16.23
2017-10-17T10:25:58.998Z,17.50
2017-10-17T10:28:27.441Z,16.57
2017-10-17T10:30:56.679Z,15.10
2017-10-17T10:33:25.124Z,15.47
2017-10-17T10:35:54.355Z,14.93
2017-10-17T10:38:22.801Z,14.77
2017-10-17T10:40:52.035Z,13.10
2017-10-17T10:43:20.526Z,15.57
2017-10-17T10:45:49.097Z,14.43
2017-10-17T10:48:17.554Z,15.37
2017-10-17T10:50:46.890Z,14.47
2017-10-17T10:53:15.329Z,14.00
2017-10-17T10:55:44.566Z,15.70
2017-10-17T10:58:13.042Z,14.00
2017-10-17T11:00:41.482Z,14.53
2017-10-17T11:03:10.845Z,15.53
2017-10-17T11:05:39.285Z,14.57
2017-10-17T11:08:08.610Z,14.77
2017-10-17T11:10:37.058Z,14.83
2017-10-17T11:13:06.289Z,15.40
2017-10-17T11:15:34.730Z,15.97
2017-10-17T11:18:03.961Z,16.40
2017-10-17T11:20:32.401Z,15.87
2017-10-17T11:23:00.861Z,14.73
2017-10-17T11:25:29.300Z,15.80
2017-10-17T11:27:57.761Z,15.40
2017-10-17T11:30:26.974Z,14.40
2017-10-17T11:32:55.441Z,14.23
2017-10-17T11:35:24.654Z,15.57
2017-10-17T11:37:53.121Z,14.93
2017-10-17T11:40:40.186Z,14.93
2017-10-17T11:43:26.419Z,14.80
2017-10-17T11:45:54.870Z,15.23
2017-10-17T11:48:23.341Z,15.50
2017-10-17T11:50:51.814Z,14.40
2017-10-17T11:53:20.265Z,15.23
2017-10-17T11:55:49.494Z,16.83
2017-10-17T11:58:17.933Z,14.60
2017-10-17T12:00:47.191Z,14.70
2017-10-17T12:03:15.666Z,15.47
2017-10-17T12:05:44.133Z,14.50
2017-10-17T12:08:12.632Z,15.40
2017-10-17T12:10:41.097Z,16.10
2017-10-17T12:13:09.543Z,16.23
2017-10-17T12:15:38.783Z,15.13
2017-10-17T12:18:07.234Z,16.13
2017-10-17T12:20:36.465Z,16.30
2017-10-17T12:23:05.065Z,15.20
2017-10-17T12:25:33.552Z,15.87
2017-10-17T12:28:02.031Z,14.80
2017-10-17T12:30:30.474Z,16.40
2017-10-17T12:32:59.711Z,17.97
2017-10-17T12:35:28.153Z,16.20
2017-10-17T12:37:57.390Z,16.80
2017-10-17T12:40:25.833Z,15.47
2017-10-17T12:42:55.173Z,16.50
2017-10-17T12:45:23.618Z,16.30
2017-10-17T12:47:52.955Z,18.03
2017-10-17T12:50:21.439Z,18.50
2017-10-17T12:52:49.901Z,16.33
2017-10-17T12:55:18.354Z,16.13
2017-10-17T12:57:47.586Z,18.93
2017-10-17T13:00:16.029Z,18.37
2017-10-17T13:02:45.266Z,17.53
2017-10-17T13:05:13.763Z,17.80
2017-10-17T13:07:42.230Z,18.47
2017-10-17T13:10:10.674Z,19.30
2017-10-17T13:12:39.885Z,18.80
2017-10-17T13:15:09.126Z,17.10
2017-10-17T13:17:37.565Z,18.40
2017-10-17T13:20:06.796Z,18.67
2017-10-17T13:22:35.291Z,16.20
2017-10-17T13:25:03.758Z,18.63
2017-10-17T13:27:32.201Z,17.60
2017-10-17T13:30:01.510Z,19.40
2017-10-17T13:32:30.722Z,18.70
2017-10-17T13:34:59.233Z,16.40
2017-10-17T13:37:27.682Z,16.50
2017-10-17T13:39:57.008Z,16.57
2017-10-17T13:42:25.449Z,17.50
2017-10-17T13:44:54.685Z,16.40
2017-10-17T13:47:23.127Z,17.47
2017-10-17T13:49:52.386Z,16.33
2017-10-17T13:52:20.837Z,15.10
2017-10-17T13:54:49.280Z,14.93
2017-10-17T13:57:17.824Z,15.60
2017-10-17T13:59:46.301Z,14.90
2017-10-17T14:02:14.778Z,15.60
2017-10-17T14:04:43.270Z,14.43
2017-10-17T14:07:11.856Z,16.80
2017-10-17T14:09:40.344Z,15.20
2017-10-17T14:12:08.815Z,15.53
2017-10-17T14:14:37.270Z,16.13
2017-10-17T14:17:06.507Z,18.00
2017-10-17T14:19:34.973Z,14.90
2017-10-17T14:22:03.470Z,16.47
2017-10-17T14:24:31.912Z,15.37
2017-10-17T14:27:01.151Z,16.93
2017-10-17T14:29:29.622Z,16.67
2017-10-17T14:31:58.091Z,15.03
2017-10-17T14:34:26.529Z,15.23
2017-10-17T14:36:55.067Z,15.17
2017-10-17T14:39:23.525Z,16.47
2017-10-17T14:41:52.728Z,15.23
2017-10-17T14:44:21.239Z,16.50
2017-10-17T14:46:49.714Z,15.40
2017-10-17T14:49:18.181Z,14.97
2017-10-17T14:51:46.637Z,15.43
2017-10-17T14:54:15.883Z,16.10
2017-10-17T14:56:44.359Z,16.97
2017-10-17T14:59:12.829Z,16.90
2017-10-17T15:01:41.326Z,17.27
2017-10-17T15:04:09.903Z,15.87
2017-10-17T15:06:38.346Z,15.27
2017-10-17T15:09:07.573Z,15.27
2017-10-17T15:11:36.018Z,14.93
2017-10-17T15:14:05.252Z,13.80
2017-10-17T15:16:33.707Z,16.60
2017-10-17T15:19:03.050Z,15.03
2017-10-17T15:21:31.538Z,15.67
2017-10-17T15:23:59.978Z,14.30
2017-10-17T15:26:29.298Z,14.50
2017-10-17T15:28:57.737Z,15.03
2017-10-17T15:31:26.286Z,13.40
2017-10-17T15:33:54.734Z,14.47
2017-10-17T15:36:23.962Z,12.77
2017-10-17T15:38:52.401Z,13.20
2017-10-17T15:41:21.743Z,13.27
2017-10-17T15:43:50.186Z,13.83
2017-10-17T15:46:19.413Z,14.27
2017-10-17T15:48:47.852Z,13.60
2017-10-17T15:51:16.317Z,12.90
2017-10-17T15:53:44.753Z,13.27
2017-10-17T15:56:13.255Z,14.00
2017-10-17T15:58:41.852Z,13.77
2017-10-17T16:01:10.299Z,13.13
2017-10-17T16:03:38.766Z,14.83
2017-10-17T16:06:07.969Z,13.57
2017-10-17T16:08:37.203Z,15.17
2017-10-17T16:11:05.642Z,15.50
2017-10-17T16:13:34.874Z,15.43
2017-10-17T16:16:03.313Z,15.83
2017-10-17T16:18:32.549Z,14.80
2017-10-17T16:21:00.998Z,17.57
2017-10-17T16:23:30.230Z,15.97
2017-10-17T16:25:58.676Z,16.70
2017-10-17T16:28:27.908Z,16.17
2017-10-17T16:30:56.345Z,17.00
2017-10-17T16:33:24.821Z,17.50
2017-10-17T16:35:53.269Z,17.10
2017-10-17T16:38:21.717Z,17.67
2017-10-17T16:40:51.051Z,16.77
2017-10-17T16:43:19.510Z,18.17
2017-10-17T16:45:47.985Z,18.00
2017-10-17T16:48:16.493Z,18.07
2017-10-17T16:50:44.965Z,20.40
2017-10-17T16:53:13.458Z,17.87
2017-10-17T16:55:41.919Z,19.70
2017-10-17T16:58:10.374Z,21.13
2017-10-17T17:00:39.749Z,21.37
2017-10-17T17:03:08.192Z,21.23
2017-10-17T17:05:36.657Z,21.33
2017-10-17T17:08:05.865Z,24.07
2017-10-17T17:10:34.338Z,22.50
2017-10-17T17:13:03.545Z,20.37
2017-10-17T17:15:32.155Z,19.73
2017-10-17T17:18:00.613Z,21.60
2017-10-17T17:20:29.053Z,20.57
2017-10-17T17:22:57.600Z,23.40
2017-10-17T17:25:26.041Z,23.80
2017-10-17T17:27:55.269Z,21.77
2017-10-17T17:30:23.773Z,23.50
2017-10-17T17:32:52.343Z,24.33
2017-10-17T17:35:20.785Z,22.87
2017-10-17T17:37:50.014Z,23.33
2017-10-17T17:40:18.512Z,23.23
2017-10-17T17:42:46.978Z,24.03
2017-10-17T17:45:15.425Z,26.23
2017-10-17T17:47:44.654Z,25.40
2017-10-17T17:50:13.099Z,24.10
2017-10-17T17:52:41.629Z,24.90
2017-10-17T17:55:10.126Z,24.83
2017-10-17T17:57:38.596Z,25.10
2017-10-17T18:00:07.052Z,23.70
2017-10-17T18:02:36.381Z,24.90
2017-10-17T18:05:04.821Z,26.90
2017-10-17T18:07:34.062Z,25.63
2017-10-17T18:10:02.515Z,25.37
2017-10-17T18:12:31.731Z,30.30
2017-10-17T18:15:00.223Z,28.20
2017-10-17T18:17:28.714Z,29.77
2017-10-17T18:19:57.182Z,29.43
2017-10-17T18:22:25.680Z,26.50
2017-10-17T18:24:54.145Z,30.00
2017-10-17T18:27:22.634Z,28.73
2017-10-17T18:29:51.217Z,30.63
2017-10-17T18:32:19.654Z,33.30
2017-10-17T18:34:48.886Z,33.27
2017-10-17T18:37:17.332Z,28.70
2017-10-17T18:39:46.571Z,33.33
2017-10-17T18:42:15.025Z,30.50
2017-10-17T18:44:44.234Z,31.53
2017-10-17T18:47:12.747Z,33.60
2017-10-17T18:49:41.199Z,34.30
2017-10-17T18:52:09.704Z,30.60
2017-10-17T18:54:38.161Z,36.20
2017-10-17T18:57:07.393Z,34.30
2017-10-17T18:59:35.874Z,31.97
2017-10-17T19:02:04.414Z,31.97
2017-10-17T19:04:33.658Z,32.50
2017-10-17T19:07:02.238Z,32.70
2017-10-17T19:09:30.682Z,28.70
2017-10-17T19:11:59.922Z,31.37
2017-10-17T19:14:28.711Z,28.97
2017-10-17T19:16:57.193Z,30.10
2017-10-17T19:19:25.671Z,28.13
2017-10-17T19:21:54.115Z,30.00
2017-10-17T19:24:23.459Z,28.43
2017-10-17T19:26:51.900Z,32.87
2017-10-17T19:29:21.140Z,29.67
2017-10-17T19:31:49.582Z,29.47
2017-10-17T19:34:18.823Z,31.33
2017-10-17T19:36:47.262Z,25.17
2017-10-17T19:39:16.489Z,35.40
2017-10-17T19:41:44.938Z,30.70
2017-10-17T19:44:14.288Z,31.63
2017-10-17T19:46:42.761Z,26.70
2017-10-17T19:49:11.250Z,29.60
2017-10-17T19:51:39.708Z,34.17
2017-10-17T19:54:08.174Z,29.33
2017-10-17T19:56:37.406Z,31.53
2017-10-17T19:59:05.882Z,37.77
2017-10-17T20:01:34.377Z,41.43
2017-10-17T20:04:02.846Z,42.27
2017-10-17T20:06:31.334Z,42.00
2017-10-17T20:08:59.805Z,41.83
2017-10-17T20:11:28.306Z,38.50
2017-10-17T20:13:56.753Z,46.17
2017-10-17T20:16:26.090Z,41.50
2017-10-17T20:18:54.536Z,45.93
2017-10-17T20:21:23.771Z,44.63
2017-10-17T20:23:52.218Z,41.50
2017-10-17T20:26:20.727Z,37.40
2017-10-17T20:28:49.165Z,39.03
2017-10-17T20:31:18.393Z,40.70
2017-10-17T20:33:46.894Z,43.33
2017-10-17T20:36:15.365Z,39.13
2017-10-17T20:38:43.810Z,36.70
2017-10-17T20:41:13.159Z,42.97
2017-10-17T20:43:41.601Z,34.70
2017-10-17T20:46:10.829Z,40.20
2017-10-17T20:48:39.269Z,40.17
2017-10-17T20:51:08.514Z,38.10
2017-10-17T20:53:36.985Z,38.60
2017-10-17T20:56:05.481Z,40.13
2017-10-17T20:58:33.941Z,33.87
2017-10-17T21:01:02.450Z,35.80
2017-10-17T21:03:30.927Z,30.40
2017-10-17T21:05:59.407Z,33.23
2017-10-17T21:08:27.877Z,37.40
2017-10-17T21:10:56.318Z,27.97
2017-10-17T21:13:24.786Z,29.20
2017-10-17T21:15:53.342Z,32.67
2017-10-17T21:18:21.801Z,30.50
2017-10-17T21:20:50.299Z,32.70
2017-10-17T21:23:18.765Z,31.00
2017-10-17T21:25:47.264Z,28.40
2017-10-17T21:28:15.711Z,30.30
2017-10-17T21:30:44.941Z,31.60
2017-10-17T21:33:13.435Z,34.77
2017-10-17T21:35:41.897Z,31.63
2017-10-17T21:38:10.362Z,33.93
2017-10-17T21:40:39.692Z,35.93
2017-10-17T21:43:08.149Z,33.83
2017-10-17T21:45:36.613Z,32.20
2017-10-17T21:48:05.817Z,28.67
2017-10-17T21:50:35.153Z,32.97
2017-10-17T21:53:03.650Z,36.20
2017-10-17T21:55:32.201Z,34.13
2017-10-17T21:58:00.711Z,35.27
2017-10-17T22:00:46.846Z,30.30
2017-10-17T22:03:15.297Z,35.50
2017-10-17T22:05:43.763Z,36.33
2017-10-17T22:08:12.253Z,35.90
2017-10-17T22:10:40.693Z,37.37
2017-10-17T22:13:10.035Z,39.60
2017-10-17T22:15:38.480Z,37.50
2017-10-17T22:18:07.818Z,35.67
2017-10-17T22:20:36.261Z,41.30
2017-10-17T22:23:05.603Z,31.77
2017-10-17T22:25:34.050Z,34.70
2017-10-17T22:28:02.560Z,40.40
2017-10-17T22:30:31.010Z,36.97
2017-10-17T22:33:00.242Z,38.90
2017-10-17T22:35:28.699Z,38.67
2017-10-17T22:37:57.131Z,38.50
2017-10-17T22:40:25.686Z,39.03
2017-10-17T22:42:54.137Z,37.93
2017-10-17T22:45:23.476Z,36.30
2017-10-17T22:47:51.965Z,40.67
2017-10-17T22:50:20.433Z,35.40
2017-10-17T22:52:48.877Z,40.90
2017-10-17T22:55:18.212Z,36.13
2017-10-17T22:57:46.653Z,39.20
2017-10-17T23:00:15.900Z,39.60
2017-10-17T23:02:44.354Z,38.40
2017-10-17T23:05:12.837Z,38.43
2017-10-17T23:07:41.288Z,37.57
2017-10-17T23:10:09.761Z,37.87
2017-10-17T23:12:38.201Z,38.63
2017-10-17T23:15:06.694Z,39.00
2017-10-17T23:17:52.829Z,37.67
2017-10-17T23:20:36.216Z,36.37
2017-10-17T23:23:04.699Z,39.70
2017-10-17T23:25:33.291Z,39.27
2017-10-17T23:28:01.747Z,36.27
2017-10-17T23:30:30.200Z,37.27
2017-10-17T23:32:59.547Z,38.87
2017-10-17T23:35:28.030Z,40.30
2017-10-17T23:37:56.504Z,40.50
2017-10-17T23:40:24.945Z,37.20
2017-10-17T23:42:54.177Z,35.70
2017-10-17T23:45:22.623Z,37.57
2017-10-17T23:47:51.099Z,39.20
2017-10-17T23:50:19.547Z,36.10
2017-10-17T23:52:48.019Z,36.27
2017-10-17T23:55:16.472Z,38.47
2017-10-17T23:57:45.705Z,38.90
